Time;durP1;ratioP1;P1;durP2;ratioP2;P2;SDS_P1;SDS_P2;PMS_P1;PMS_P2;Temp;Humidity;BMP_temperature;BMP_pressure;BME280_temperature;BME280_humidity;BME280_pressure;Samples;Min_cycle;Max_cycle;Signal;HPM_P1;HPM_P2
2024/03/15 00:01:15;;;;;;;2.50;2.30;;;;;;;;;;6191730;23;20180;-53
2024/03/15 00:03:42;;;;;;;2.90;2.65;;;;;;;;;;6191617;23;20208;-53
2024/03/15 00:06:13;;;;;;;2.55;2.35;;;;;;;;;;6191809;23;20176;-50
2024/03/15 00:08:41;;;;;;;2.88;2.67;;;;;;;;;;6193850;23;20532;-50
2024/03/15 00:11:08;;;;;;;2.85;2.50;;;;;;;;;;6192220;23;20173;-53
2024/03/15 00:13:36;;;;;;;3.28;2.97;;;;;;;;;;6216851;23;20177;-52
2024/03/15 00:16:04;;;;;;;2.70;2.50;;;;;;;;;;6191940;23;20532;-49
2024/03/15 00:18:33;;;;;;;3.35;3.05;;;;;;;;;;6191976;23;20228;-52
2024/03/15 00:21:01;;;;;;;3.22;2.92;;;;;;;;;;6193542;23;20546;-52
2024/03/15 00:23:29;;;;;;;4.18;3.63;;;;;;;;;;6216849;23;20193;-50
2024/03/15 00:25:56;;;;;;;2.13;2.03;;;;;;;;;;6191781;23;20169;-49
2024/03/15 00:28:24;;;;;;;2.85;2.65;;;;;;;;;;6191817;23;20267;-48
2024/03/15 00:30:52;;;;;;;2.20;2.00;;;;;;;;;;6192135;23;20173;-47
2024/03/15 00:33:19;;;;;;;3.28;2.85;;;;;;;;;;6192248;23;20216;-48
2024/03/15 00:35:47;;;;;;;3.72;3.38;;;;;;;;;;6192065;23;20200;-50
2024/03/15 00:38:15;;;;;;;3.10;2.80;;;;;;;;;;6191828;23;20194;-50
2024/03/15 00:40:42;;;;;;;2.50;2.30;;;;;;;;;;6191989;23;20174;-51
2024/03/15 00:43:15;;;;;;;2.55;2.35;;;;;;;;;;6191935;23;20177;-52
2024/03/15 00:45:44;;;;;;;4.28;3.08;;;;;;;;;;6196506;23;20153;-50
2024/03/15 00:48:11;;;;;;;2.78;2.50;;;;;;;;;;6194378;23;20200;-48
2024/03/15 00:50:39;;;;;;;9.05;3.72;;;;;;;;;;6193686;23;20194;-52
2024/03/15 00:53:07;;;;;;;2.67;2.47;;;;;;;;;;6193958;23;20243;-51
2024/03/15 00:55:35;;;;;;;2.70;2.50;;;;;;;;;;6193762;23;20691;-51
2024/03/15 00:58:02;;;;;;;2.65;2.42;;;;;;;;;;6193875;23;20200;-51
2024/03/15 01:00:33;;;;;;;2.13;2.03;;;;;;;;;;6193925;23;20728;-50
2024/03/15 01:03:02;;;;;;;2.05;1.95;;;;;;;;;;6195911;23;20157;-52
2024/03/15 01:05:29;;;;;;;2.90;2.70;;;;;;;;;;6193969;23;20264;-53
2024/03/15 01:07:57;;;;;;;2.53;2.33;;;;;;;;;;6193746;23;20199;-49
2024/03/15 01:10:25;;;;;;;2.40;2.20;;;;;;;;;;6193786;23;20509;-49
2024/03/15 01:12:53;;;;;;;3.28;2.30;;;;;;;;;;6194213;23;20177;-53
2024/03/15 01:15:21;;;;;;;3.08;2.88;;;;;;;;;;6193682;23;20193;-52
2024/03/15 01:17:48;;;;;;;2.20;2.10;;;;;;;;;;6193505;23;20604;-51
2024/03/15 01:20:16;;;;;;;2.70;2.47;;;;;;;;;;6193429;23;20173;-48
2024/03/15 01:22:44;;;;;;;2.38;2.20;;;;;;;;;;6218221;23;20571;-49
2024/03/15 01:25:12;;;;;;;2.67;1.90;;;;;;;;;;6194031;23;20630;-50
2024/03/15 01:27:40;;;;;;;2.53;2.33;;;;;;;;;;6193552;23;20279;-48
2024/03/15 01:30:09;;;;;;;3.85;3.55;;;;;;;;;;6193641;23;20179;-47
2024/03/15 01:32:37;;;;;;;3.05;2.85;;;;;;;;;;6194486;23;20615;-48
2024/03/15 01:35:05;;;;;;;3.50;3.13;;;;;;;;;;6193460;23;20256;-49
2024/03/15 01:37:33;;;;;;;2.53;2.33;;;;;;;;;;6193605;23;20728;-52
2024/03/15 01:40:00;;;;;;;2.38;2.28;;;;;;;;;;6193526;23;20183;-48
2024/03/15 01:42:28;;;;;;;2.60;2.40;;;;;;;;;;6193170;23;20179;-49
2024/03/15 01:44:56;;;;;;;4.60;4.20;;;;;;;;;;6193690;23;20173;-51
2024/03/15 01:47:25;;;;;;;3.45;3.22;;;;;;;;;;6193428;23;20201;-48
2024/03/15 01:49:53;;;;;;;3.40;3.13;;;;;;;;;;6194946;23;20233;-53
2024/03/15 01:52:21;;;;;;;3.22;2.92;;;;;;;;;;6193314;23;20208;-51
2024/03/15 01:54:49;;;;;;;3.95;2.92;;;;;;;;;;6193481;23;20181;-55
2024/03/15 01:57:17;;;;;;;3.30;3.00;;;;;;;;;;6192542;23;20280;-50
2024/03/15 01:59:45;;;;;;;4.43;4.13;;;;;;;;;;6193777;23;20259;-53
2024/03/15 02:02:13;;;;;;;3.90;3.60;;;;;;;;;;6192947;23;20177;-51
2024/03/15 02:04:41;;;;;;;2.97;2.70;;;;;;;;;;6193662;23;20176;-48
2024/03/15 02:07:09;;;;;;;2.60;2.42;;;;;;;;;;6193417;23;20201;-50
2024/03/15 02:09:38;;;;;;;2.90;2.70;;;;;;;;;;6193570;23;20634;-50
2024/03/15 02:12:06;;;;;;;2.53;2.33;;;;;;;;;;6194188;23;20264;-50
2024/03/15 02:14:33;;;;;;;2.88;2.58;;;;;;;;;;6192860;23;20173;-49
2024/03/15 02:17:01;;;;;;;3.47;3.05;;;;;;;;;;6192557;23;20520;-48
2024/03/15 02:19:29;;;;;;;3.85;3.55;;;;;;;;;;6192764;23;20173;-51
2024/03/15 02:21:57;;;;;;;2.58;2.38;;;;;;;;;;6193051;23;20219;-50
2024/03/15 02:24:24;;;;;;;3.47;3.17;;;;;;;;;;6193487;23;20181;-49
2024/03/15 02:26:52;;;;;;;3.90;3.60;;;;;;;;;;6192900;23;20271;-50
2024/03/15 02:29:19;;;;;;;3.00;2.70;;;;;;;;;;6192563;23;20177;-52
2024/03/15 02:31:47;;;;;;;4.15;3.55;;;;;;;;;;6192928;23;20255;-49
2024/03/15 02:34:15;;;;;;;3.40;3.10;;;;;;;;;;6192684;23;20661;-51
2024/03/15 02:36:42;;;;;;;2.83;2.63;;;;;;;;;;6192503;23;20200;-51
2024/03/15 02:39:16;;;;;;;2.92;2.35;;;;;;;;;;6193145;23;20195;-49
2024/03/15 02:41:43;;;;;;;2.47;2.28;;;;;;;;;;6195821;23;20591;-50
2024/03/15 02:44:11;;;;;;;2.58;2.38;;;;;;;;;;6217848;23;20180;-49
2024/03/15 02:46:39;;;;;;;2.80;2.60;;;;;;;;;;6217417;23;20199;-49
2024/03/15 02:49:06;;;;;;;2.60;2.40;;;;;;;;;;6192956;23;20634;-48
2024/03/15 02:51:34;;;;;;;3.92;3.50;;;;;;;;;;6217408;23;20252;-49
2024/03/15 02:54:02;;;;;;;3.25;3.00;;;;;;;;;;6217676;23;20185;-51
2024/03/15 02:56:30;;;;;;;3.08;2.75;;;;;;;;;;6217868;23;20197;-53
2024/03/15 02:58:58;;;;;;;3.28;2.97;;;;;;;;;;6193072;23;20518;-49
2024/03/15 03:01:25;;;;;;;3.60;3.30;;;;;;;;;;6192761;23;20180;-54
2024/03/15 03:03:53;;;;;;;3.47;3.17;;;;;;;;;;6217963;23;20177;-52
2024/03/15 03:06:21;;;;;;;3.65;3.35;;;;;;;;;;6192452;23;20669;-51
2024/03/15 03:08:49;;;;;;;2.92;2.67;;;;;;;;;;6192759;23;20236;-51
2024/03/15 03:11:18;;;;;;;3.55;3.28;;;;;;;;;;6192790;23;20184;-50
2024/03/15 03:13:45;;;;;;;3.25;3.05;;;;;;;;;;6192994;23;20629;-50
2024/03/15 03:16:18;;;;;;;3.47;2.80;;;;;;;;;;6192189;23;20173;-52
2024/03/15 03:18:45;;;;;;;3.33;3.03;;;;;;;;;;6194918;23;20197;-50
2024/03/15 03:21:13;;;;;;;3.65;3.30;;;;;;;;;;6216909;23;20173;-49
2024/03/15 03:23:41;;;;;;;5.50;3.80;;;;;;;;;;6192350;23;20181;-50
2024/03/15 03:26:10;;;;;;;4.38;3.75;;;;;;;;;;6192261;23;20633;-50
2024/03/15 03:28:37;;;;;;;3.08;2.88;;;;;;;;;;6218206;23;20193;-54
2024/03/15 03:31:05;;;;;;;3.50;3.20;;;;;;;;;;6191791;23;20173;-51
2024/03/15 03:33:33;;;;;;;4.65;3.80;;;;;;;;;;6192133;23;20177;-50
2024/03/15 03:36:01;;;;;;;4.75;4.35;;;;;;;;;;6191933;23;20179;-51
2024/03/15 03:38:28;;;;;;;3.92;3.40;;;;;;;;;;6191870;23;20197;-51
2024/03/15 03:40:56;;;;;;;3.80;3.20;;;;;;;;;;6191761;23;20256;-53
2024/03/15 03:43:23;;;;;;;3.90;3.60;;;;;;;;;;6191889;23;20173;-52
2024/03/15 03:45:54;;;;;;;3.30;3.10;;;;;;;;;;6191680;23;20177;-51
2024/03/15 03:48:21;;;;;;;3.88;3.45;;;;;;;;;;6193042;23;20192;-55
2024/03/15 03:50:49;;;;;;;3.33;3.13;;;;;;;;;;6192170;23;20195;-50
2024/03/15 03:53:16;;;;;;;6.15;3.45;;;;;;;;;;6191651;23;20181;-53
2024/03/15 03:55:45;;;;;;;4.00;3.70;;;;;;;;;;6191876;23;20173;-52
2024/03/15 03:58:13;;;;;;;3.42;3.08;;;;;;;;;;6192972;23;20662;-53
2024/03/15 04:00:41;;;;;;;4.45;3.33;;;;;;;;;;6191724;23;20204;-53
2024/03/15 04:03:09;;;;;;;2.80;2.50;;;;;;;;;;6191397;23;20196;-56
2024/03/15 04:05:38;;;;;;;3.17;2.90;;;;;;;;;;6192543;23;20284;-54
2024/03/15 04:08:05;;;;;;;3.35;3.15;;;;;;;;;;6189504;23;20189;-53
2024/03/15 04:10:35;;;;;;;2.70;2.50;;;;;;;;;;6191571;23;20525;-52
2024/03/15 04:13:03;;;;;;;3.15;2.95;;;;;;;;;;6192876;23;20187;-54
2024/03/15 04:15:32;;;;;;;4.22;3.35;;;;;;;;;;6191708;23;20173;-55
2024/03/15 04:18:01;;;;;;;3.78;3.47;;;;;;;;;;6192862;23;20257;-52
2024/03/15 04:20:29;;;;;;;4.53;4.20;;;;;;;;;;6194139;23;20177;-52
2024/03/15 04:22:57;;;;;;;5.68;3.90;;;;;;;;;;6193397;23;20234;-55
2024/03/15 04:25:25;;;;;;;4.47;4.07;;;;;;;;;;6193674;23;20585;-54
2024/03/15 04:27:53;;;;;;;3.55;3.28;;;;;;;;;;6194143;23;20508;-51
2024/03/15 04:30:22;;;;;;;4.75;3.60;;;;;;;;;;6193618;23;20173;-51
2024/03/15 04:32:50;;;;;;;3.83;3.53;;;;;;;;;;6194683;23;20184;-51
2024/03/15 04:35:18;;;;;;;4.28;3.97;;;;;;;;;;6194054;23;20177;-52
2024/03/15 04:37:46;;;;;;;4.32;3.33;;;;;;;;;;6193469;23;20657;-49
2024/03/15 04:40:14;;;;;;;3.63;3.17;;;;;;;;;;6194698;23;20260;-50
2024/03/15 04:42:42;;;;;;;3.58;3.20;;;;;;;;;;6194620;23;20214;-52
2024/03/15 04:45:09;;;;;;;3.33;3.13;;;;;;;;;;6194294;23;20705;-52
2024/03/15 04:47:39;;;;;;;3.15;2.95;;;;;;;;;;6218556;23;20287;-54
2024/03/15 04:50:09;;;;;;;3.63;3.33;;;;;;;;;;6195457;23;20212;-53
2024/03/15 04:52:37;;;;;;;4.13;3.63;;;;;;;;;;6195839;23;20491;-50
2024/03/15 04:55:05;;;;;;;3.47;3.25;;;;;;;;;;6193993;23;20185;-54
2024/03/15 04:57:36;;;;;;;2.65;2.45;;;;;;;;;;6194396;23;20205;-53
2024/03/15 05:00:09;;;;;;;3.50;3.20;;;;;;;;;;6196474;23;20236;-52
2024/03/15 05:02:37;;;;;;;3.55;3.25;;;;;;;;;;6196418;23;20618;-53
2024/03/15 05:05:07;;;;;;;3.10;2.63;;;;;;;;;;6194287;23;20177;-54
2024/03/15 05:07:34;;;;;;;4.15;3.58;;;;;;;;;;6195232;23;20271;-49
2024/03/15 05:10:02;;;;;;;3.13;2.90;;;;;;;;;;6194189;23;20674;-50
2024/03/15 05:12:30;;;;;;;2.70;2.50;;;;;;;;;;6193948;23;20177;-53
2024/03/15 05:14:57;;;;;;;3.35;3.05;;;;;;;;;;6193978;23;20626;-49
2024/03/15 05:17:26;;;;;;;3.85;3.55;;;;;;;;;;6194184;23;20283;-51
2024/03/15 05:19:53;;;;;;;3.47;3.17;;;;;;;;;;6218515;23;20529;-50
2024/03/15 05:22:24;;;;;;;3.28;3.08;;;;;;;;;;6193059;23;20173;-56
2024/03/15 05:24:52;;;;;;;3.35;3.08;;;;;;;;;;6195610;23;20496;-52
2024/03/15 05:27:19;;;;;;;3.72;3.42;;;;;;;;;;6193533;23;20197;-54
2024/03/15 05:29:47;;;;;;;3.90;3.50;;;;;;;;;;6193407;23;20256;-50
2024/03/15 05:32:15;;;;;;;2.92;2.72;;;;;;;;;;6192583;23;20184;-49
2024/03/15 05:34:42;;;;;;;3.25;3.05;;;;;;;;;;6218062;23;20176;-51
2024/03/15 05:37:10;;;;;;;4.00;3.60;;;;;;;;;;6193199;23;20197;-51
2024/03/15 05:39:38;;;;;;;3.67;3.38;;;;;;;;;;6192968;23;20193;-54
2024/03/15 05:42:07;;;;;;;3.72;3.42;;;;;;;;;;6192670;23;20179;-56
2024/03/15 05:44:34;;;;;;;4.20;3.80;;;;;;;;;;6194009;23;20231;-54
2024/03/15 05:47:02;;;;;;;3.70;3.33;;;;;;;;;;6217919;23;20197;-55
2024/03/15 05:49:29;;;;;;;2.85;2.65;;;;;;;;;;6193486;23;20512;-53
2024/03/15 05:51:57;;;;;;;3.47;3.17;;;;;;;;;;6193286;23;20173;-51
2024/03/15 05:54:25;;;;;;;4.03;3.67;;;;;;;;;;6192944;23;20189;-51
2024/03/15 05:56:52;;;;;;;4.60;4.20;;;;;;;;;;6192893;23;20291;-53
2024/03/15 05:59:20;;;;;;;3.70;3.40;;;;;;;;;;6193628;23;20288;-51
2024/03/15 06:01:48;;;;;;;4.07;3.78;;;;;;;;;;6217577;23;20352;-53
2024/03/15 06:04:16;;;;;;;4.57;4.18;;;;;;;;;;6193356;23;20658;-56
2024/03/15 06:06:44;;;;;;;4.40;4.03;;;;;;;;;;6193123;23;20173;-55
2024/03/15 06:09:13;;;;;;;4.32;3.92;;;;;;;;;;6194593;23;20488;-53
2024/03/15 06:11:40;;;;;;;3.75;3.45;;;;;;;;;;6193762;23;20204;-52
2024/03/15 06:14:08;;;;;;;3.67;3.38;;;;;;;;;;6193679;23;20694;-55
2024/03/15 06:16:36;;;;;;;5.65;4.32;;;;;;;;;;6192834;23;20656;-52
2024/03/15 06:19:04;;;;;;;6.43;5.25;;;;;;;;;;6193799;23;20193;-53
2024/03/15 06:21:33;;;;;;;5.28;4.80;;;;;;;;;;6218364;23;20525;-50
2024/03/15 06:24:01;;;;;;;3.47;3.22;;;;;;;;;;6194684;23;20173;-51
2024/03/15 06:26:29;;;;;;;5.72;5.13;;;;;;;;;;6192671;23;20227;-53
2024/03/15 06:28:57;;;;;;;5.05;4.47;;;;;;;;;;6192773;23;20685;-54
2024/03/15 06:31:25;;;;;;;6.10;4.95;;;;;;;;;;6217423;23;20181;-52
2024/03/15 06:33:56;;;;;;;5.18;4.78;;;;;;;;;;6192360;23;20231;-50
2024/03/15 06:36:29;;;;;;;4.20;3.80;;;;;;;;;;6194602;23;20244;-55
2024/03/15 06:39:08;;;;;;;4.40;4.00;;;;;;;;;;6219066;23;20177;-51
2024/03/15 06:41:40;;;;;;;4.82;4.32;;;;;;;;;;6197802;23;20157;-52
2024/03/15 06:44:20;;;;;;;4.75;4.35;;;;;;;;;;6194976;23;20541;-51
2024/03/15 06:47:15;;;;;;;4.90;4.43;;;;;;;;;;6197696;23;20235;-52
2024/03/15 06:49:48;;;;;;;3.72;3.28;;;;;;;;;;6204450;23;20177;-55
2024/03/15 06:55:10;;;;;;;3.83;3.30;;;;;;;;;;6205241;23;20638;-51
2024/03/15 06:57:38;;;;;;;3.42;3.08;;;;;;;;;;6192269;23;20193;-50
2024/03/15 07:00:09;;;;;;;4.10;3.28;;;;;;;;;;6167506;23;20189;-52
2024/03/15 07:02:41;;;;;;;2.63;2.42;;;;;;;;;;6193872;23;20164;-54
2024/03/15 07:05:11;;;;;;;2.60;2.40;;;;;;;;;;6218913;23;20157;-49
2024/03/15 07:07:38;;;;;;;2.95;2.63;;;;;;;;;;6193280;23;20284;-51
2024/03/15 07:10:10;;;;;;;4.05;2.70;;;;;;;;;;6192350;23;20251;-51
2024/03/15 07:12:38;;;;;;;5.03;2.88;;;;;;;;;;6193947;23;20164;-50
2024/03/15 07:15:08;;;;;;;3.58;3.28;;;;;;;;;;6193107;23;20626;-51
2024/03/15 07:17:36;;;;;;;2.92;2.72;;;;;;;;;;6217256;23;20276;-52
2024/03/15 07:20:07;;;;;;;3.67;3.38;;;;;;;;;;6192095;23;20216;-52
2024/03/15 07:22:35;;;;;;;3.50;2.55;;;;;;;;;;6194174;23;20165;-52
2024/03/15 07:25:04;;;;;;;2.95;2.75;;;;;;;;;;6216733;23;20573;-53
2024/03/15 07:27:32;;;;;;;3.95;3.22;;;;;;;;;;6193573;23;20215;-53
2024/03/15 07:30:00;;;;;;;3.17;2.75;;;;;;;;;;6192148;23;20340;-52
2024/03/15 07:32:28;;;;;;;2.97;2.63;;;;;;;;;;6191601;23;20263;-52
2024/03/15 07:34:56;;;;;;;2.92;2.72;;;;;;;;;;6192329;23;20177;-54
2024/03/15 07:37:24;;;;;;;2.47;2.28;;;;;;;;;;6191770;23;20272;-52
2024/03/15 07:39:52;;;;;;;2.65;2.25;;;;;;;;;;6191957;23;20203;-50
2024/03/15 07:42:19;;;;;;;2.55;2.35;;;;;;;;;;6191705;23;20177;-50
2024/03/15 07:44:49;;;;;;;2.40;2.20;;;;;;;;;;6191996;23;20725;-53
2024/03/15 07:47:18;;;;;;;2.88;2.67;;;;;;;;;;6193275;23;20595;-51
2024/03/15 07:49:45;;;;;;;2.83;2.45;;;;;;;;;;6192529;23;20196;-53
2024/03/15 07:52:13;;;;;;;2.30;2.10;;;;;;;;;;6191581;23;20687;-51
2024/03/15 07:54:41;;;;;;;2.47;2.28;;;;;;;;;;6216195;23;20344;-55
2024/03/15 07:57:09;;;;;;;5.15;2.80;;;;;;;;;;6191623;23;20738;-53
2024/03/15 07:59:36;;;;;;;3.85;3.05;;;;;;;;;;6191765;23;20283;-51
2024/03/15 08:02:04;;;;;;;2.85;2.55;;;;;;;;;;6191430;23;20649;-53
2024/03/15 08:04:34;;;;;;;3.13;2.53;;;;;;;;;;6216643;23;20611;-50
2024/03/15 08:07:02;;;;;;;3.22;2.58;;;;;;;;;;6192874;23;20242;-52
2024/03/15 08:09:30;;;;;;;2.83;2.28;;;;;;;;;;6216471;23;20192;-53
2024/03/15 08:11:59;;;;;;;2.83;2.47;;;;;;;;;;6192098;23;20263;-49
2024/03/15 08:14:31;;;;;;;2.22;2.08;;;;;;;;;;6192624;23;20191;-50
2024/03/15 08:16:59;;;;;;;2.45;2.25;;;;;;;;;;6193509;23;20201;-51
2024/03/15 08:19:27;;;;;;;4.68;3.15;;;;;;;;;;6192074;23;20243;-51
2024/03/15 08:21:55;;;;;;;4.15;3.78;;;;;;;;;;6191437;23;20180;-53
2024/03/15 08:24:26;;;;;;;5.78;3.05;;;;;;;;;;6192110;23;20493;-51
2024/03/15 08:26:54;;;;;;;3.97;3.47;;;;;;;;;;6193763;23;20197;-50
2024/03/15 08:29:22;;;;;;;5.15;4.30;;;;;;;;;;6191835;23;20205;-51
2024/03/15 08:31:50;;;;;;;4.60;4.10;;;;;;;;;;6191413;23;20184;-49
2024/03/15 08:34:20;;;;;;;3.70;3.40;;;;;;;;;;6191893;23;20188;-55
2024/03/15 08:36:48;;;;;;;3.28;3.00;;;;;;;;;;6193345;23;20200;-57
2024/03/15 08:39:15;;;;;;;3.50;3.20;;;;;;;;;;6191491;23;20187;-54
2024/03/15 08:41:43;;;;;;;2.88;2.67;;;;;;;;;;6191746;23;20212;-55
2024/03/15 08:44:11;;;;;;;2.90;2.60;;;;;;;;;;6191599;23;20517;-56
2024/03/15 08:46:39;;;;;;;3.42;3.13;;;;;;;;;;6216067;23;20197;-55
2024/03/15 08:49:07;;;;;;;3.45;3.15;;;;;;;;;;6192333;23;20181;-53
2024/03/15 08:51:35;;;;;;;3.00;2.80;;;;;;;;;;6191701;23;20553;-54
2024/03/15 08:54:04;;;;;;;4.03;3.13;;;;;;;;;;6191933;23;20745;-55
2024/03/15 08:56:32;;;;;;;3.97;3.58;;;;;;;;;;6193348;23;20180;-53
2024/03/15 08:58:59;;;;;;;3.92;3.30;;;;;;;;;;6191496;23;20179;-54
2024/03/15 09:01:32;;;;;;;3.00;2.80;;;;;;;;;;6191275;23;20200;-55
2024/03/15 09:04:00;;;;;;;2.85;2.65;;;;;;;;;;6218677;23;20767;-53
2024/03/15 09:06:28;;;;;;;2.40;2.20;;;;;;;;;;6192938;23;20564;-53
2024/03/15 09:08:56;;;;;;;3.05;2.85;;;;;;;;;;6193789;23;20180;-53
2024/03/15 09:11:25;;;;;;;3.10;2.88;;;;;;;;;;6193563;23;20183;-55
2024/03/15 09:13:56;;;;;;;3.40;3.10;;;;;;;;;;6194129;23;20176;-50
2024/03/15 09:16:24;;;;;;;2.33;2.13;;;;;;;;;;6195575;23;20163;-55
2024/03/15 09:18:52;;;;;;;3.63;2.75;;;;;;;;;;6193931;23;20300;-54
2024/03/15 09:21:20;;;;;;;3.03;2.83;;;;;;;;;;6194370;23;20204;-55
2024/03/15 09:23:48;;;;;;;3.05;2.70;;;;;;;;;;6194384;23;20189;-50
2024/03/15 09:26:16;;;;;;;3.75;3.10;;;;;;;;;;6194310;23;20177;-52
2024/03/15 09:28:45;;;;;;;3.00;2.72;;;;;;;;;;6194221;23;20193;-52
2024/03/15 09:31:14;;;;;;;2.72;2.50;;;;;;;;;;6195237;23;20175;-55
2024/03/15 09:33:43;;;;;;;4.85;3.70;;;;;;;;;;6219709;23;20496;-52
2024/03/15 09:36:16;;;;;;;3.03;2.83;;;;;;;;;;6195086;23;20201;-53
2024/03/15 09:38:45;;;;;;;2.65;2.38;;;;;;;;;;6196273;23;20232;-51
2024/03/15 09:41:13;;;;;;;3.38;3.08;;;;;;;;;;6194704;23;20584;-54
2024/03/15 09:43:41;;;;;;;3.78;3.17;;;;;;;;;;6193837;23;20179;-51
2024/03/15 09:46:11;;;;;;;3.13;2.92;;;;;;;;;;6193839;23;20200;-53
2024/03/15 09:48:39;;;;;;;3.03;2.70;;;;;;;;;;6194651;23;20196;-50
2024/03/15 09:51:08;;;;;;;2.58;2.35;;;;;;;;;;6193410;23;20176;-55
2024/03/15 09:53:36;;;;;;;4.53;3.00;;;;;;;;;;6194533;23;20238;-55
2024/03/15 09:56:04;;;;;;;2.70;2.50;;;;;;;;;;6217767;23;20173;-51
2024/03/15 09:58:32;;;;;;;3.35;3.05;;;;;;;;;;6192567;23;20204;-53
2024/03/15 10:01:01;;;;;;;2.92;2.40;;;;;;;;;;6193128;23;20666;-54
2024/03/15 10:03:29;;;;;;;2.28;2.15;;;;;;;;;;6193395;23;20177;-55
2024/03/15 10:05:56;;;;;;;2.88;2.67;;;;;;;;;;6192705;23;20180;-55
2024/03/15 10:08:24;;;;;;;2.85;2.47;;;;;;;;;;6192595;23;20284;-52
2024/03/15 10:10:52;;;;;;;3.00;2.67;;;;;;;;;;6192887;23;20534;-56
2024/03/15 10:13:19;;;;;;;2.10;2.00;;;;;;;;;;6192463;23;20524;-52
2024/03/15 10:15:47;;;;;;;2.00;1.90;;;;;;;;;;6217180;23;20173;-52
2024/03/15 10:18:15;;;;;;;1.83;1.73;;;;;;;;;;6217286;23;20258;-52
2024/03/15 10:20:46;;;;;;;2.00;1.83;;;;;;;;;;6192414;23;20197;-50
2024/03/15 10:23:14;;;;;;;3.42;2.78;;;;;;;;;;6195050;23;20244;-56
2024/03/15 10:25:42;;;;;;;2.13;1.90;;;;;;;;;;6192667;23;20179;-54
2024/03/15 10:28:10;;;;;;;1.70;1.60;;;;;;;;;;6192509;23;20196;-57
2024/03/15 10:30:38;;;;;;;2.63;2.00;;;;;;;;;;6192662;23;20199;-51
2024/03/15 10:33:06;;;;;;;2.70;2.50;;;;;;;;;;6217145;23;20176;-54
2024/03/15 10:35:34;;;;;;;2.00;1.88;;;;;;;;;;6192908;23;20184;-54
2024/03/15 10:38:03;;;;;;;2.13;1.92;;;;;;;;;;6192972;23;20543;-51
2024/03/15 10:40:32;;;;;;;1.85;1.75;;;;;;;;;;6193399;23;20173;-50
2024/03/15 10:43:01;;;;;;;2.10;1.90;;;;;;;;;;6218765;23;20177;-49
2024/03/15 10:45:29;;;;;;;2.72;2.40;;;;;;;;;;6193284;23;20177;-52
2024/03/15 10:47:56;;;;;;;2.28;2.08;;;;;;;;;;6192816;23;20199;-49
2024/03/15 10:50:24;;;;;;;2.13;2.00;;;;;;;;;;6192759;23;20514;-54
2024/03/15 10:52:52;;;;;;;1.45;1.35;;;;;;;;;;6192480;23;20183;-53
2024/03/15 10:55:20;;;;;;;3.92;3.25;;;;;;;;;;6217226;23;20530;-55
2024/03/15 10:57:47;;;;;;;2.28;2.17;;;;;;;;;;6192529;23;20196;-50
2024/03/15 11:00:16;;;;;;;2.13;1.85;;;;;;;;;;6217264;23;20195;-50
2024/03/15 11:02:44;;;;;;;2.22;2.03;;;;;;;;;;6217232;23;20272;-50
2024/03/15 11:05:15;;;;;;;1.63;1.52;;;;;;;;;;6192674;23;20173;-51
2024/03/15 11:07:43;;;;;;;2.10;1.90;;;;;;;;;;6193121;23;20275;-52
2024/03/15 11:10:11;;;;;;;1.73;1.63;;;;;;;;;;6191974;23;20180;-53
2024/03/15 11:12:39;;;;;;;2.78;1.85;;;;;;;;;;6192950;23;20550;-52
2024/03/15 11:15:10;;;;;;;2.03;1.80;;;;;;;;;;6217022;23;20497;-53
2024/03/15 11:17:37;;;;;;;1.63;1.52;;;;;;;;;;6194130;23;20688;-53
2024/03/15 11:20:06;;;;;;;2.15;1.95;;;;;;;;;;6216999;23;20179;-55
2024/03/15 11:22:34;;;;;;;1.98;1.88;;;;;;;;;;6192757;23;20211;-54
2024/03/15 11:25:02;;;;;;;1.70;1.60;;;;;;;;;;6192780;23;20177;-52
2024/03/15 11:27:31;;;;;;;2.17;1.98;;;;;;;;;;6192057;23;20235;-53
2024/03/15 11:29:59;;;;;;;2.17;1.60;;;;;;;;;;6193421;23;20199;-53
2024/03/15 11:32:26;;;;;;;1.60;1.50;;;;;;;;;;6192167;23;20173;-56
2024/03/15 11:34:54;;;;;;;1.10;1.10;;;;;;;;;;6191992;23;20182;-51
2024/03/15 11:37:23;;;;;;;5.72;3.13;;;;;;;;;;6192309;23;20279;-51
2024/03/15 11:40:00;;;;;;;3.60;2.22;;;;;;;;;;6193632;23;20177;-51
2024/03/15 11:42:28;;;;;;;2.10;1.90;;;;;;;;;;6192358;23;20193;-52
2024/03/15 11:44:56;;;;;;;5.60;2.55;;;;;;;;;;6192390;23;20576;-50
2024/03/15 11:47:23;;;;;;;3.92;2.10;;;;;;;;;;6191920;23;20193;-50
2024/03/15 11:49:57;;;;;;;5.78;2.35;;;;;;;;;;6192566;23;20187;-51
2024/03/15 11:52:25;;;;;;;1.63;1.20;;;;;;;;;;6192131;23;20169;-52
2024/03/15 11:54:54;;;;;;;1.90;1.70;;;;;;;;;;6216499;23;20259;-54
2024/03/15 11:57:22;;;;;;;1.73;1.45;;;;;;;;;;6216843;23;20736;-51
2024/03/15 11:59:49;;;;;;;1.85;1.75;;;;;;;;;;6192201;23;20177;-52
2024/03/15 12:02:17;;;;;;;1.63;1.42;;;;;;;;;;6191835;23;20203;-52
2024/03/15 12:04:45;;;;;;;1.55;1.45;;;;;;;;;;6192312;23;20173;-55
2024/03/15 12:07:13;;;;;;;2.10;1.90;;;;;;;;;;6192351;23;20719;-53
2024/03/15 12:09:46;;;;;;;1.27;1.17;;;;;;;;;;6191827;23;20236;-50
2024/03/15 12:12:13;;;;;;;1.55;1.45;;;;;;;;;;6218196;23;20282;-50
2024/03/15 12:14:42;;;;;;;1.73;1.60;;;;;;;;;;6191937;23;20576;-51
2024/03/15 12:17:12;;;;;;;1.60;1.50;;;;;;;;;;6192304;23;20673;-53
2024/03/15 12:19:40;;;;;;;2.20;2.10;;;;;;;;;;6192004;23;20511;-55
2024/03/15 12:22:08;;;;;;;2.15;2.00;;;;;;;;;;6192099;23;20200;-51
2024/03/15 12:24:35;;;;;;;2.42;2.08;;;;;;;;;;6192320;23;20176;-50
2024/03/15 12:27:04;;;;;;;1.83;1.48;;;;;;;;;;6191810;23;20204;-50
2024/03/15 12:29:31;;;;;;;1.80;1.70;;;;;;;;;;6192604;23;20649;-52
2024/03/15 12:31:59;;;;;;;1.65;1.55;;;;;;;;;;6216296;23;20568;-50
2024/03/15 12:34:27;;;;;;;2.05;1.95;;;;;;;;;;6192047;23;20177;-50
2024/03/15 12:36:55;;;;;;;1.65;1.50;;;;;;;;;;6191755;23;20252;-51
2024/03/15 12:39:22;;;;;;;1.40;1.30;;;;;;;;;;6192139;23;20185;-53
2024/03/15 12:41:55;;;;;;;2.75;1.60;;;;;;;;;;6192728;23;20276;-51
2024/03/15 12:44:22;;;;;;;5.22;2.40;;;;;;;;;;6196557;23;20161;-54
2024/03/15 12:46:50;;;;;;;1.55;1.45;;;;;;;;;;6193172;23;22506;-50
2024/03/15 12:49:18;;;;;;;1.80;1.40;;;;;;;;;;6193960;23;20256;-54
2024/03/15 12:51:45;;;;;;;4.60;2.33;;;;;;;;;;6218040;23;20172;-52
2024/03/15 12:54:14;;;;;;;1.77;1.50;;;;;;;;;;6193419;23;20584;-50
2024/03/15 12:56:41;;;;;;;1.65;1.55;;;;;;;;;;6193917;23;20734;-53
2024/03/15 12:59:09;;;;;;;1.42;1.17;;;;;;;;;;6193857;23;20256;-54
2024/03/15 13:01:37;;;;;;;1.30;1.20;;;;;;;;;;6193534;23;20184;-52
2024/03/15 13:04:05;;;;;;;1.42;1.33;;;;;;;;;;6193282;23;20208;-50
2024/03/15 13:06:32;;;;;;;1.33;1.23;;;;;;;;;;6193496;23;20176;-51
2024/03/15 13:09:00;;;;;;;1.20;1.20;;;;;;;;;;6193671;23;20179;-52
2024/03/15 13:11:28;;;;;;;1.00;1.00;;;;;;;;;;6192844;23;20515;-50
2024/03/15 13:13:56;;;;;;;1.23;1.13;;;;;;;;;;6193971;23;20173;-52
2024/03/15 13:16:24;;;;;;;1.38;1.27;;;;;;;;;;6193147;23;20510;-51
2024/03/15 13:18:51;;;;;;;2.13;1.60;;;;;;;;;;6217893;23;20204;-50
2024/03/15 13:21:19;;;;;;;1.65;1.55;;;;;;;;;;6193064;23;20173;-55
2024/03/15 13:23:47;;;;;;;1.08;0.95;;;;;;;;;;6218427;23;20196;-52
2024/03/15 13:26:20;;;;;;;1.52;1.30;;;;;;;;;;6193990;23;20260;-51
2024/03/15 13:28:48;;;;;;;1.55;1.45;;;;;;;;;;6220352;23;20199;-53
2024/03/15 13:31:16;;;;;;;1.38;1.30;;;;;;;;;;6193140;23;20181;-50
2024/03/15 13:33:43;;;;;;;1.13;1.13;;;;;;;;;;6193198;23;20223;-54
2024/03/15 13:36:11;;;;;;;1.25;1.15;;;;;;;;;;6192997;23;20531;-52
2024/03/15 13:38:39;;;;;;;0.93;0.93;;;;;;;;;;6193208;23;20200;-51
2024/03/15 13:41:07;;;;;;;1.05;1.05;;;;;;;;;;6192851;23;20279;-49
2024/03/15 13:43:34;;;;;;;2.63;0.90;;;;;;;;;;6193296;23;20197;-54
2024/03/15 13:46:05;;;;;;;1.20;1.20;;;;;;;;;;6192960;23;20252;-51
2024/03/15 13:48:33;;;;;;;0.80;0.80;;;;;;;;;;6219627;23;20243;-50
2024/03/15 13:51:00;;;;;;;0.80;0.80;;;;;;;;;;6193095;23;20177;-53
2024/03/15 13:53:28;;;;;;;0.90;0.90;;;;;;;;;;6192443;23;20177;-51
2024/03/15 13:55:57;;;;;;;0.90;0.90;;;;;;;;;;6193367;23;20255;-53
2024/03/15 13:58:24;;;;;;;1.10;1.10;;;;;;;;;;6193306;23;20236;-54
2024/03/15 14:00:52;;;;;;;1.17;1.10;;;;;;;;;;6192693;23;20820;-51
2024/03/15 14:03:23;;;;;;;1.00;1.00;;;;;;;;;;6192400;23;20197;-52
2024/03/15 14:05:50;;;;;;;1.02;0.95;;;;;;;;;;6192688;23;20762;-54
2024/03/15 14:08:19;;;;;;;0.90;0.90;;;;;;;;;;6190557;23;20302;-54
2024/03/15 14:10:47;;;;;;;1.08;1.08;;;;;;;;;;6192311;23;20181;-51
2024/03/15 14:13:17;;;;;;;1.20;1.20;;;;;;;;;;6191516;23;20191;-52
2024/03/15 14:15:45;;;;;;;1.17;1.10;;;;;;;;;;6193960;23;20211;-54
2024/03/15 14:18:13;;;;;;;1.10;1.10;;;;;;;;;;6192083;23;20197;-51
2024/03/15 14:20:41;;;;;;;1.10;1.10;;;;;;;;;;6192266;23;20208;-54
2024/03/15 14:23:08;;;;;;;1.80;1.00;;;;;;;;;;6216971;23;20269;-53
2024/03/15 14:25:36;;;;;;;1.10;1.10;;;;;;;;;;6217676;23;20181;-52
2024/03/15 14:28:05;;;;;;;1.25;1.17;;;;;;;;;;6192610;23;20193;-51
2024/03/15 14:30:33;;;;;;;1.10;1.00;;;;;;;;;;6217839;23;20205;-54
2024/03/15 14:33:01;;;;;;;1.15;1.15;;;;;;;;;;6193020;23;20678;-54
2024/03/15 14:35:28;;;;;;;1.30;1.20;;;;;;;;;;6192989;23;20180;-52
2024/03/15 14:37:56;;;;;;;1.55;1.45;;;;;;;;;;6192323;23;20279;-53
2024/03/15 14:40:25;;;;;;;0.80;0.80;;;;;;;;;;6217227;23;20260;-54
2024/03/15 14:42:53;;;;;;;1.30;1.20;;;;;;;;;;6193035;23;20287;-53
2024/03/15 14:45:21;;;;;;;1.67;1.10;;;;;;;;;;6193064;23;20173;-53
2024/03/15 14:47:52;;;;;;;1.30;1.30;;;;;;;;;;6192399;23;20737;-54
2024/03/15 14:50:20;;;;;;;1.67;1.50;;;;;;;;;;6194898;23;20215;-52
2024/03/15 14:52:48;;;;;;;1.25;1.25;;;;;;;;;;6192401;23;20173;-51